Ocean Springs, Mississippi
Current Conditions -  °F | °C
As of 9:53 PM on Monday 22 Dec 2014 (Local Time) from KBIX Reporting Station
Haze Haze  
Wind Chill: 64°   Ceiling: 200
Heat Index: 64°   Visibility: 4mi
Dew Point: 64°   Wind: 9mph
Humidity: 100%   Direction: 210°SSW
Pressure: 29.76"   Gusts: NA
Location:  30.42°N, 88.81°W
Report Text: KBIX 230353Z AUTO 21008KT 4SM R21/4500FT BR BKN002 18/18 A2976 RMK AO2 BKN V SCT
Loading
Personal Weather Stations






























Interactive Weather Map New forecast layout! Learn more

10-Day Weather Forecast

Advertisements
Track Severe Weather on mobile